TimeCDT,TemperatureF,Dew PointF,Humidity,Sea Level PressureIn,VisibilityMPH,Wind Direction,Wind SpeedMPH,Gust SpeedMPH,PrecipitationIn,Events,Conditions,WindDirDegrees,DateUTC
12:52 AM,78.1,75.0,90,29.88,8.0,SSW,6.9,-,N/A,,Clear,210,2013-07-10 05:52:00
1:52 AM,78.1,75.0,90,29.86,7.0,SW,6.9,-,N/A,,Clear,220,2013-07-10 06:52:00
2:52 AM,78.1,75.0,90,29.85,7.0,SW,4.6,-,N/A,,Clear,230,2013-07-10 07:52:00
3:52 AM,73.9,72.0,93,29.85,4.0,Calm,Calm,-,N/A,,Clear,0,2013-07-10 08:52:00
4:52 AM,75.9,73.9,94,29.84,6.0,WSW,5.8,-,N/A,,Clear,240,2013-07-10 09:52:00
5:04 AM,75.2,73.4,94,29.87,5.0,NW,8.1,17.3,N/A,,Scattered Clouds,320,2013-07-10 10:04:00
5:40 AM,73.4,71.6,94,29.86,2.0,NW,3.5,-,N/A,,Scattered Clouds,310,2013-07-10 10:40:00
5:52 AM,73.9,72.0,93,29.84,2.5,NW,4.6,-,N/A,,Partly Cloudy,320,2013-07-10 10:52:00
6:03 AM,73.4,73.4,100,29.86,3.0,NW,4.6,-,N/A,,Partly Cloudy,310,2013-07-10 11:03:00
6:52 AM,77.0,73.0,88,29.86,8.0,NNW,4.6,-,N/A,,Clear,340,2013-07-10 11:52:00
7:52 AM,78.1,72.0,81,29.87,10.0,NNW,10.4,-,N/A,,Mostly Cloudy,340,2013-07-10 12:52:00
8:52 AM,79.0,71.1,77,29.87,10.0,NNW,15.0,-,N/A,,Mostly Cloudy,340,2013-07-10 13:52:00
9:52 AM,80.1,70.0,71,29.88,10.0,NNW,13.8,-,N/A,,Partly Cloudy,330,2013-07-10 14:52:00
10:52 AM,81.0,69.1,67,29.91,10.0,NNW,13.8,-,N/A,,Clear,340,2013-07-10 15:52:00
11:52 AM,82.0,66.9,60,29.93,10.0,NNW,11.5,-,N/A,,Partly Cloudy,340,2013-07-10 16:52:00
12:52 PM,81.0,66.0,60,29.93,10.0,NNW,9.2,-,N/A,,Scattered Clouds,330,2013-07-10 17:52:00
1:52 PM,82.0,64.9,56,29.92,10.0,NW,12.7,20.7,N/A,,Partly Cloudy,320,2013-07-10 18:52:00
2:52 PM,82.0,64.0,54,29.92,10.0,NNW,11.5,19.6,N/A,,Partly Cloudy,340,2013-07-10 19:52:00
3:52 PM,82.0,63.0,52,29.91,10.0,NW,11.5,19.6,N/A,,Clear,320,2013-07-10 20:52:00
4:52 PM,80.1,64.0,58,29.91,10.0,North,9.2,-,N/A,,Scattered Clouds,350,2013-07-10 21:52:00
5:52 PM,79.0,61.0,54,29.91,10.0,North,15.0,-,N/A,,Partly Cloudy,360,2013-07-10 22:52:00
6:52 PM,77.0,57.0,50,29.94,10.0,North,10.4,-,N/A,,Clear,360,2013-07-10 23:52:00
7:52 PM,73.0,57.9,59,29.95,10.0,North,6.9,-,N/A,,Clear,10,2013-07-11 00:52:00
8:52 PM,69.1,57.9,68,29.96,10.0,NNE,5.8,-,N/A,,Clear,20,2013-07-11 01:52:00
9:52 PM,64.9,59.0,81,29.99,10.0,North,4.6,-,N/A,,Clear,10,2013-07-11 02:52:00
10:52 PM,64.9,60.1,84,30.00,10.0,Calm,Calm,-,N/A,,Clear,0,2013-07-11 03:52:00
11:52 PM,61.0,57.9,90,30.01,9.0,Calm,Calm,-,N/A,,Partly Cloudy,0,2013-07-11 04:52:00